createdAt,value
2018-09-14T00:00:59.319Z,1008.49
2018-09-14T00:01:59.309Z,1008.51
2018-09-14T00:02:59.296Z,1008.49
2018-09-14T00:03:59.283Z,1008.50
2018-09-14T00:04:59.291Z,1008.51
2018-09-14T00:05:59.263Z,1008.53
2018-09-14T00:06:59.254Z,1008.49
2018-09-14T00:07:59.242Z,1008.50
2018-09-14T00:08:59.233Z,1008.45
2018-09-14T00:09:59.243Z,1008.50
2018-09-14T00:10:59.210Z,1008.48
2018-09-14T00:11:59.201Z,1008.49
2018-09-14T00:12:59.197Z,1008.50
2018-09-14T00:13:59.176Z,1008.47
2018-09-14T00:14:59.165Z,1008.44
2018-09-14T00:15:59.169Z,1008.41
2018-09-14T00:16:59.146Z,1008.41
2018-09-14T00:17:59.132Z,1008.35
2018-09-14T00:18:59.122Z,1008.41
2018-09-14T00:19:59.113Z,1008.40
2018-09-14T00:20:59.112Z,1008.40
2018-09-14T00:21:59.090Z,1008.39
2018-09-14T00:22:59.080Z,1008.41
2018-09-14T00:23:59.078Z,1008.44
2018-09-14T00:24:59.058Z,1008.42
2018-09-14T00:25:59.047Z,1008.39
2018-09-14T00:26:59.049Z,1008.36
2018-09-14T00:27:59.027Z,1008.41
2018-09-14T00:28:59.017Z,1008.36
2018-09-14T00:29:59.002Z,1008.40
2018-09-14T00:30:59.007Z,1008.36
2018-09-14T00:31:58.983Z,1008.39
2018-09-14T00:32:58.992Z,1008.34
2018-09-14T00:33:58.959Z,1008.35
2018-09-14T00:34:58.952Z,1008.38
2018-09-14T00:35:58.936Z,1008.33
2018-09-14T00:36:58.927Z,1008.34
2018-09-14T00:37:58.918Z,1008.35
2018-09-14T00:38:58.925Z,1008.27
2018-09-14T00:39:58.894Z,1008.29
2018-09-14T00:40:58.901Z,1008.29
2018-09-14T00:41:58.872Z,1008.27
2018-09-14T00:42:58.883Z,1008.26
2018-09-14T00:43:58.853Z,1008.23
2018-09-14T00:44:58.840Z,1008.28
2018-09-14T00:45:58.828Z,1008.27
2018-09-14T00:46:58.823Z,1008.31
2018-09-14T00:47:58.810Z,1008.24
2018-09-14T00:48:58.814Z,1008.32
2018-09-14T00:49:58.789Z,1008.27
2018-09-14T00:50:58.778Z,1008.30
2018-09-14T00:51:58.773Z,1008.23
2018-09-14T00:52:58.756Z,1008.27
2018-09-14T00:53:58.757Z,1008.24
2018-09-14T00:54:58.733Z,1008.28
2018-09-14T00:55:58.722Z,1008.29
2018-09-14T00:56:58.712Z,1008.28
2018-09-14T00:57:58.704Z,1008.28
2018-09-14T00:58:58.707Z,1008.30
2018-09-14T00:59:58.700Z,1008.28
2018-09-14T01:00:58.672Z,1008.25
2018-09-14T01:01:58.660Z,1008.27
2018-09-14T01:02:58.647Z,1008.26
2018-09-14T01:03:58.637Z,1008.29
2018-09-14T01:04:58.626Z,1008.28
2018-09-14T01:05:58.633Z,1008.29
2018-09-14T01:06:58.608Z,1008.28
2018-09-14T01:07:58.592Z,1008.31
2018-09-14T01:08:58.583Z,1008.29
2018-09-14T01:09:58.574Z,1008.26
2018-09-14T01:10:58.580Z,1008.30
2018-09-14T01:11:58.552Z,1008.25
2018-09-14T01:12:58.543Z,1008.29
2018-09-14T01:13:58.532Z,1008.28
2018-09-14T01:14:58.520Z,1008.26
2018-09-14T01:15:58.525Z,1008.26
2018-09-14T01:16:58.499Z,1008.25
2018-09-14T01:17:58.490Z,1008.26
2018-09-14T01:18:58.502Z,1008.21
2018-09-14T01:19:58.464Z,1008.24
2018-09-14T01:20:58.457Z,1008.23
2018-09-14T01:21:58.445Z,1008.24
2018-09-14T01:22:58.435Z,1008.22
2018-09-14T01:23:58.420Z,1008.26
2018-09-14T01:24:58.425Z,1008.20
2018-09-14T01:25:58.399Z,1008.18
2018-09-14T01:26:58.407Z,1008.17
2018-09-14T01:27:58.378Z,1008.20
2018-09-14T01:28:58.371Z,1008.20
2018-09-14T01:29:58.356Z,1008.17
2018-09-14T01:30:58.345Z,1008.17
2018-09-14T01:31:58.352Z,1008.16
2018-09-14T01:32:58.328Z,1008.24
2018-09-14T01:33:58.316Z,1008.20
2018-09-14T01:34:58.306Z,1008.17
2018-09-14T01:35:58.294Z,1008.22
2018-09-14T01:36:58.319Z,1008.24
2018-09-14T01:37:58.271Z,1008.21
2018-09-14T01:38:58.275Z,1008.21
2018-09-14T01:39:58.250Z,1008.19
2018-09-14T01:40:58.240Z,1008.15
2018-09-14T01:41:58.228Z,1008.14
2018-09-14T01:42:58.234Z,1008.12
2018-09-14T01:43:58.205Z,1008.16
2018-09-14T01:44:58.195Z,1008.21
2018-09-14T01:45:58.184Z,1008.17
2018-09-14T01:46:58.173Z,1008.21
2018-09-14T01:47:58.185Z,1008.18
2018-09-14T01:48:58.153Z,1008.18
2018-09-14T01:49:58.144Z,1008.16
2018-09-14T01:50:58.134Z,1008.18
2018-09-14T01:51:58.123Z,1008.19
2018-09-14T01:52:58.112Z,1008.19
2018-09-14T01:53:58.112Z,1008.16
2018-09-14T01:54:58.102Z,1008.13
2018-09-14T01:55:58.082Z,1008.08
2018-09-14T01:56:58.069Z,1008.07
2018-09-14T01:57:58.058Z,1008.04
2018-09-14T01:58:58.060Z,1008.12
2018-09-14T01:59:58.058Z,1008.09
2018-09-14T02:00:58.025Z,1008.08
2018-09-14T02:01:58.020Z,1008.10
2018-09-14T02:02:58.004Z,1008.10
2018-09-14T02:03:57.993Z,1008.07
2018-09-14T02:04:57.984Z,1008.10
2018-09-14T02:05:57.996Z,1008.07
2018-09-14T02:06:57.961Z,1008.06
2018-09-14T02:07:57.949Z,1008.06
2018-09-14T02:08:57.941Z,1008.02
2018-09-14T02:09:57.945Z,1008.04
2018-09-14T02:10:57.917Z,1008.06
2018-09-14T02:11:57.906Z,1008.06
2018-09-14T02:12:57.893Z,1008.06
2018-09-14T02:13:57.885Z,1008.07
2018-09-14T02:14:57.890Z,1008.06
2018-09-14T02:15:57.880Z,1008.01
2018-09-14T02:16:57.869Z,1008.00
2018-09-14T02:17:57.841Z,1008.05
2018-09-14T02:18:57.832Z,1008.04
2018-09-14T02:19:57.834Z,1008.08
2018-09-14T02:20:57.810Z,1008.10
2018-09-14T02:21:57.799Z,1008.07
2018-09-14T02:22:57.793Z,1008.08
2018-09-14T02:23:57.797Z,1008.06
2018-09-14T02:24:57.773Z,1008.05
2018-09-14T02:25:57.773Z,1008.04
2018-09-14T02:26:57.746Z,1008.00
2018-09-14T02:27:57.737Z,1008.05
2018-09-14T02:28:57.731Z,1008.03
2018-09-14T02:29:57.735Z,1008.05
2018-09-14T02:30:57.708Z,1008.03
2018-09-14T02:31:57.693Z,1008.06
2018-09-14T02:32:57.694Z,1008.04
2018-09-14T02:33:57.671Z,1008.03
2018-09-14T02:34:57.662Z,1007.98
2018-09-14T02:35:57.662Z,1007.94
2018-09-14T02:36:57.639Z,1007.93
2018-09-14T02:37:57.631Z,1007.92
2018-09-14T02:38:57.634Z,1007.94
2018-09-14T02:39:57.609Z,1007.94
2018-09-14T02:40:57.595Z,1007.92
2018-09-14T02:41:57.608Z,1007.91
2018-09-14T02:42:57.577Z,1007.91
2018-09-14T02:43:57.561Z,1007.92
2018-09-14T02:44:57.556Z,1007.89
2018-09-14T02:45:57.544Z,1007.92
2018-09-14T02:46:57.533Z,1007.87
2018-09-14T02:47:57.540Z,1007.87
2018-09-14T02:48:57.517Z,1007.88
2018-09-14T02:49:57.501Z,1007.88
2018-09-14T02:50:57.543Z,1007.86
2018-09-14T02:51:57.477Z,1007.87
2018-09-14T02:52:57.469Z,1007.86
2018-09-14T02:53:57.473Z,1007.84
2018-09-14T02:54:57.447Z,1007.83
2018-09-14T02:55:57.436Z,1007.88
2018-09-14T02:56:57.425Z,1007.85
2018-09-14T02:57:57.426Z,1007.86
2018-09-14T02:58:57.400Z,1007.85
2018-09-14T02:59:57.435Z,1007.85
2018-09-14T03:00:57.380Z,1007.82
2018-09-14T03:01:57.367Z,1007.81
2018-09-14T03:02:57.372Z,1007.84
2018-09-14T03:03:57.366Z,1007.87
2018-09-14T03:04:57.337Z,1007.84
2018-09-14T03:05:57.327Z,1007.87
2018-09-14T03:06:57.316Z,1007.85
2018-09-14T03:07:57.304Z,1007.82
2018-09-14T03:08:57.295Z,1007.88
2018-09-14T03:09:57.295Z,1007.81
2018-09-14T03:10:57.275Z,1007.81
2018-09-14T03:11:57.259Z,1007.81
2018-09-14T03:12:57.251Z,1007.82
2018-09-14T03:13:57.239Z,1007.80
2018-09-14T03:14:57.247Z,1007.79
2018-09-14T03:15:57.219Z,1007.85
2018-09-14T03:16:57.208Z,1007.83
2018-09-14T03:17:57.194Z,1007.86
2018-09-14T03:18:57.185Z,1007.83
2018-09-14T03:19:57.172Z,1007.86
2018-09-14T03:20:57.180Z,1007.85
2018-09-14T03:21:57.155Z,1007.86
2018-09-14T03:22:57.153Z,1007.85
2018-09-14T03:23:57.131Z,1007.87
2018-09-14T03:24:57.131Z,1007.89
2018-09-14T03:25:57.112Z,1007.89
2018-09-14T03:26:57.125Z,1007.85
2018-09-14T03:27:57.085Z,1007.88
2018-09-14T03:28:57.077Z,1007.91
2018-09-14T03:29:57.066Z,1007.87
2018-09-14T03:30:57.052Z,1007.92
2018-09-14T03:31:57.044Z,1007.88
2018-09-14T03:32:57.056Z,1007.92
2018-09-14T03:33:57.020Z,1007.91
2018-09-14T03:34:57.012Z,1007.94
2018-09-14T03:35:57.001Z,1007.92
2018-09-14T03:36:56.992Z,1007.88
2018-09-14T03:37:56.976Z,1007.90
2018-09-14T03:38:56.985Z,1007.99
2018-09-14T03:39:56.954Z,1007.98
2018-09-14T03:40:56.943Z,1007.92
2018-09-14T03:41:56.936Z,1007.96
2018-09-14T03:42:56.938Z,1007.99
2018-09-14T03:43:56.924Z,1007.99
2018-09-14T03:44:56.905Z,1007.96
2018-09-14T03:45:56.891Z,1007.97
2018-09-14T03:46:56.880Z,1007.99
2018-09-14T03:47:56.894Z,1007.97
2018-09-14T03:48:56.856Z,1007.95
2018-09-14T03:49:56.851Z,1007.98
2018-09-14T03:50:56.838Z,1007.96
2018-09-14T03:51:56.828Z,1007.98
2018-09-14T03:52:56.816Z,1007.97
2018-09-14T03:53:56.824Z,1007.99
2018-09-14T03:54:56.795Z,1008.02
2018-09-14T03:55:56.786Z,1008.02
2018-09-14T03:56:56.774Z,1008.04
2018-09-14T03:57:56.763Z,1008.01
2018-09-14T03:58:56.790Z,1008.08
2018-09-14T03:59:56.743Z,1008.06
2018-09-14T04:00:56.731Z,1008.07
2018-09-14T04:01:56.718Z,1008.05
2018-09-14T04:02:56.707Z,1008.08
2018-09-14T04:03:56.698Z,1008.03
2018-09-14T04:04:56.708Z,1008.09
2018-09-14T04:05:56.675Z,1008.06
2018-09-14T04:06:56.664Z,1008.09
2018-09-14T04:07:56.715Z,1008.08
2018-09-14T04:08:56.643Z,1008.11
2018-09-14T04:09:56.637Z,1008.12
2018-09-14T04:10:56.635Z,1008.07
2018-09-14T04:11:56.611Z,1008.12
2018-09-14T04:12:56.636Z,1008.05
2018-09-14T04:13:56.591Z,1008.06
2018-09-14T04:14:56.581Z,1008.03
2018-09-14T04:15:56.571Z,1008.02
2018-09-14T04:16:56.558Z,1008.02
2018-09-14T04:17:56.544Z,1008.05
2018-09-14T04:18:56.554Z,1008.06
2018-09-14T04:19:56.524Z,1008.06
2018-09-14T04:20:56.514Z,1008.07
2018-09-14T04:21:56.502Z,1008.09
2018-09-14T04:22:56.506Z,1008.12
2018-09-14T04:23:56.500Z,1008.09
2018-09-14T04:24:56.487Z,1008.08
2018-09-14T04:25:56.462Z,1008.10
2018-09-14T04:26:56.449Z,1008.07
2018-09-14T04:27:56.438Z,1008.05
2018-09-14T04:28:56.427Z,1008.07
2018-09-14T04:29:56.457Z,1008.08
2018-09-14T04:30:56.412Z,1008.05
2018-09-14T04:31:56.394Z,1008.03
2018-09-14T04:32:56.386Z,1008.01
2018-09-14T04:33:56.379Z,1008.03
2018-09-14T04:34:56.366Z,1007.99
2018-09-14T04:35:56.369Z,1008.03
2018-09-14T04:36:56.351Z,1008.03
2018-09-14T04:37:56.341Z,1008.02
2018-09-14T04:38:56.323Z,1008.03
2018-09-14T04:39:56.313Z,1008.03
2018-09-14T04:40:56.323Z,1008.09
2018-09-14T04:41:56.289Z,1008.05
2018-09-14T04:42:56.277Z,1008.09
2018-09-14T04:43:56.268Z,1008.01
2018-09-14T04:44:56.257Z,1008.04
2018-09-14T04:45:56.245Z,1008.05
2018-09-14T04:46:56.277Z,1008.06
2018-09-14T04:47:56.224Z,1008.05
2018-09-14T04:48:56.213Z,1008.09
2018-09-14T04:49:56.206Z,1008.08
2018-09-14T04:50:56.190Z,1008.03
2018-09-14T04:51:56.185Z,1008.07
2018-09-14T04:52:56.191Z,1008.05
2018-09-14T04:53:56.176Z,1008.00
2018-09-14T04:54:56.150Z,1008.05
2018-09-14T04:55:56.137Z,1007.99
2018-09-14T04:56:56.132Z,1007.98
2018-09-14T04:57:56.115Z,1008.03
2018-09-14T04:58:56.126Z,1008.07
2018-09-14T04:59:56.094Z,1008.07
2018-09-14T05:00:56.086Z,1008.02
2018-09-14T05:01:56.077Z,1008.04
2018-09-14T05:02:56.063Z,1008.06
2018-09-14T05:03:56.054Z,1008.01
2018-09-14T05:04:56.052Z,1008.01
2018-09-14T05:05:56.030Z,1008.04
2018-09-14T05:06:56.019Z,1008.03
2018-09-14T05:07:56.023Z,1007.97
2018-09-14T05:08:55.994Z,1008.02
2018-09-14T05:09:55.986Z,1007.98
2018-09-14T05:10:55.975Z,1007.91
2018-09-14T05:11:55.966Z,1007.95
2018-09-14T05:12:55.953Z,1007.92
2018-09-14T05:13:55.963Z,1007.98
2018-09-14T05:14:55.944Z,1007.96
2018-09-14T05:15:55.918Z,1007.96
2018-09-14T05:16:55.909Z,1007.96
2018-09-14T05:17:55.897Z,1007.95
2018-09-14T05:18:55.888Z,1007.96
2018-09-14T05:19:55.891Z,1008.01
2018-09-14T05:20:55.863Z,1008.01
2018-09-14T05:21:55.853Z,1008.04
2018-09-14T05:22:55.844Z,1008.02
2018-09-14T05:23:55.893Z,1008.01
2018-09-14T05:24:55.862Z,1007.98
2018-09-14T05:25:55.845Z,1008.02
2018-09-14T05:26:55.800Z,1008.01
2018-09-14T05:27:55.785Z,1007.99
2018-09-14T05:28:55.777Z,1008.03
2018-09-14T05:29:55.767Z,1007.99
2018-09-14T05:30:55.755Z,1008.02
2018-09-14T05:31:55.760Z,1008.01
2018-09-14T05:32:55.732Z,1008.00
2018-09-14T05:33:55.721Z,1008.00
2018-09-14T05:34:55.712Z,1008.02
2018-09-14T05:35:55.698Z,1008.02
2018-09-14T05:36:55.727Z,1008.05
2018-09-14T05:37:55.679Z,1008.04
2018-09-14T05:38:55.665Z,1008.08
2018-09-14T05:39:55.653Z,1008.13
2018-09-14T05:40:55.647Z,1008.11
2018-09-14T05:41:55.668Z,1008.08
2018-09-14T05:42:55.636Z,1008.13
2018-09-14T05:43:55.632Z,1008.14
2018-09-14T05:44:55.599Z,1008.13
2018-09-14T05:45:55.593Z,1008.10
2018-09-14T05:46:55.578Z,1008.10
2018-09-14T05:47:55.616Z,1008.12
2018-09-14T05:48:55.556Z,1008.13
2018-09-14T05:49:55.559Z,1008.16
2018-09-14T05:50:55.533Z,1008.15
2018-09-14T05:51:55.521Z,1008.18
2018-09-14T05:52:55.513Z,1008.12
2018-09-14T05:53:55.511Z,1008.18
2018-09-14T05:54:55.502Z,1008.15
2018-09-14T05:55:55.489Z,1008.15
2018-09-14T05:56:55.473Z,1008.17
2018-09-14T05:57:55.456Z,1008.20
2018-09-14T05:58:55.451Z,1008.22
2018-09-14T05:59:55.447Z,1008.21
2018-09-14T06:00:55.426Z,1008.23
2018-09-14T06:01:55.459Z,1008.28
2018-09-14T06:02:55.404Z,1008.23
2018-09-14T06:03:55.391Z,1008.26
2018-09-14T06:04:55.385Z,1008.35
2018-09-14T06:05:55.372Z,1008.32
2018-09-14T06:06:55.358Z,1008.34
2018-09-14T06:07:55.385Z,1008.31
2018-09-14T06:08:55.337Z,1008.35
2018-09-14T06:09:55.334Z,1008.39
2018-09-14T06:10:55.317Z,1008.36
2018-09-14T06:11:55.304Z,1008.36
2018-09-14T06:12:55.295Z,1008.39
2018-09-14T06:13:55.291Z,1008.41
2018-09-14T06:14:55.270Z,1008.41
2018-09-14T06:15:55.261Z,1008.43
2018-09-14T06:16:55.262Z,1008.46
2018-09-14T06:17:55.239Z,1008.47
2018-09-14T06:18:55.237Z,1008.51
2018-09-14T06:19:55.230Z,1008.51
2018-09-14T06:20:55.206Z,1008.46
2018-09-14T06:21:55.204Z,1008.49
2018-09-14T06:22:55.258Z,1008.48
2018-09-14T06:23:55.172Z,1008.46
2018-09-14T06:24:55.163Z,1008.47
2018-09-14T06:25:55.154Z,1008.47
2018-09-14T06:26:55.149Z,1008.50
2018-09-14T06:27:55.135Z,1008.54
2018-09-14T06:28:55.119Z,1008.53
2018-09-14T06:29:55.111Z,1008.48
2018-09-14T06:30:55.099Z,1008.54
2018-09-14T06:31:55.108Z,1008.54
2018-09-14T06:32:55.073Z,1008.56
2018-09-14T06:33:55.065Z,1008.53
2018-09-14T06:34:55.051Z,1008.50
2018-09-14T06:35:55.042Z,1008.51
2018-09-14T06:36:55.031Z,1008.51
2018-09-14T06:37:55.033Z,1008.52
2018-09-14T06:38:55.018Z,1008.49
2018-09-14T06:39:54.997Z,1008.49
2018-09-14T06:40:54.988Z,1008.48
2018-09-14T06:41:54.980Z,1008.47
2018-09-14T06:42:54.965Z,1008.49
2018-09-14T06:43:54.994Z,1008.48
2018-09-14T06:44:54.956Z,1008.45
2018-09-14T06:45:54.933Z,1008.46
2018-09-14T06:46:54.926Z,1008.49
2018-09-14T06:47:54.914Z,1008.41
2018-09-14T06:48:54.905Z,1008.41
2018-09-14T06:49:54.903Z,1008.47
2018-09-14T06:50:54.879Z,1008.42
2018-09-14T06:51:54.884Z,1008.49
2018-09-14T06:52:54.855Z,1008.43
2018-09-14T06:53:54.847Z,1008.44
2018-09-14T06:54:54.848Z,1008.44
2018-09-14T06:55:54.867Z,1008.38
2018-09-14T06:56:54.813Z,1008.40
2018-09-14T06:57:54.800Z,1008.41
2018-09-14T06:58:54.789Z,1008.43
2018-09-14T06:59:54.802Z,1008.39
2018-09-14T07:00:54.767Z,1008.42
2018-09-14T07:01:54.759Z,1008.41
2018-09-14T07:02:54.750Z,1008.39
2018-09-14T07:03:54.734Z,1008.40
2018-09-14T07:04:54.725Z,1008.35
2018-09-14T07:05:54.728Z,1008.38
2018-09-14T07:06:54.700Z,1008.32
2018-09-14T07:07:54.696Z,1008.37
2018-09-14T07:08:54.684Z,1008.39
2018-09-14T07:09:54.671Z,1008.39
2018-09-14T07:10:54.675Z,1008.40
2018-09-14T07:11:54.647Z,1008.37
2018-09-14T07:12:54.639Z,1008.38
2018-09-14T07:13:54.624Z,1008.38
2018-09-14T07:14:54.615Z,1008.44
2018-09-14T07:15:54.647Z,1008.43
2018-09-14T07:16:54.595Z,1008.42
2018-09-14T07:17:54.581Z,1008.44
2018-09-14T07:18:54.572Z,1008.44
2018-09-14T07:19:54.562Z,1008.45
2018-09-14T07:20:54.552Z,1008.41
2018-09-14T07:21:54.655Z,1008.38
2018-09-14T07:22:54.533Z,1008.43
2018-09-14T07:23:54.516Z,1008.46
2018-09-14T07:24:54.593Z,1008.40
2018-09-14T07:25:54.520Z,1008.36
2018-09-14T07:26:54.533Z,1008.37
2018-09-14T07:27:54.497Z,1008.40
2018-09-14T07:28:54.549Z,1008.36
2018-09-14T07:29:54.456Z,1008.40
2018-09-14T07:30:54.452Z,1008.41
2018-09-14T07:31:54.538Z,1008.39
2018-09-14T07:32:54.423Z,1008.39
2018-09-14T07:33:54.408Z,1008.36
2018-09-14T07:34:54.406Z,1008.33
2018-09-14T07:35:54.388Z,1008.40
2018-09-14T07:36:54.380Z,1008.42
2018-09-14T07:37:54.381Z,1008.41
2018-09-14T07:38:54.355Z,1008.44
2018-09-14T07:39:54.347Z,1008.39
2018-09-14T07:40:54.333Z,1008.42
2018-09-14T07:41:54.325Z,1008.44
2018-09-14T07:42:54.333Z,1008.45
2018-09-14T07:43:54.302Z,1008.43
2018-09-14T07:44:54.292Z,1008.46
2018-09-14T07:45:54.284Z,1008.42
2018-09-14T07:46:54.269Z,1008.46
2018-09-14T07:47:54.260Z,1008.44
2018-09-14T07:48:54.263Z,1008.47
2018-09-14T07:49:54.256Z,1008.48
2018-09-14T07:50:54.226Z,1008.46
2018-09-14T07:51:54.219Z,1008.42
2018-09-14T07:52:54.206Z,1008.44
2018-09-14T07:53:54.211Z,1008.47
2018-09-14T07:54:54.184Z,1008.47
2018-09-14T07:55:54.171Z,1008.50
2018-09-14T07:56:54.184Z,1008.51
2018-09-14T07:57:54.152Z,1008.44
2018-09-14T07:58:54.141Z,1008.42
2018-09-14T07:59:54.132Z,1008.47
2018-09-14T08:00:54.120Z,1008.56
2018-09-14T08:01:54.106Z,1008.45
2018-09-14T08:02:54.112Z,1008.43
2018-09-14T08:03:54.083Z,1008.52
2018-09-14T08:04:54.073Z,1008.53
2018-09-14T08:05:54.063Z,1008.49
2018-09-14T08:06:54.053Z,1008.49
2018-09-14T08:07:54.055Z,1008.49
2018-09-14T08:08:54.033Z,1008.51
2018-09-14T08:09:54.033Z,1008.49
2018-09-14T08:10:54.013Z,1008.50
2018-09-14T08:11:54.038Z,1008.52
2018-09-14T08:12:53.989Z,1008.50
2018-09-14T08:13:53.978Z,1008.50
2018-09-14T08:14:53.983Z,1008.53
2018-09-14T08:15:53.972Z,1008.52
2018-09-14T08:16:53.945Z,1008.53
2018-09-14T08:17:53.933Z,1008.53
2018-09-14T08:18:53.921Z,1008.58
2018-09-14T08:19:53.937Z,1008.56
2018-09-14T08:20:53.906Z,1008.55
2018-09-14T08:21:53.918Z,1008.62
2018-09-14T08:22:53.880Z,1008.63
2018-09-14T08:23:53.867Z,1008.66
2018-09-14T08:24:53.888Z,1008.66
2018-09-14T08:25:53.859Z,1008.68
2018-09-14T08:26:53.923Z,1008.67
2018-09-14T08:27:53.828Z,1008.71
2018-09-14T08:28:53.831Z,1008.70
2018-09-14T08:29:53.807Z,1008.72
2018-09-14T08:30:53.798Z,1008.73
2018-09-14T08:31:53.798Z,1008.71
2018-09-14T08:32:53.769Z,1008.77
2018-09-14T08:33:53.760Z,1008.73
2018-09-14T08:34:53.751Z,1008.73
2018-09-14T08:35:53.751Z,1008.76
2018-09-14T08:36:53.753Z,1008.79
2018-09-14T08:37:53.748Z,1008.75
2018-09-14T08:38:53.703Z,1008.77
2018-09-14T08:39:53.692Z,1008.81
2018-09-14T08:40:53.682Z,1008.82
2018-09-14T08:41:53.671Z,1008.83
2018-09-14T08:42:53.696Z,1008.79
2018-09-14T08:43:53.651Z,1008.80
2018-09-14T08:44:53.639Z,1008.80
2018-09-14T08:45:53.627Z,1008.81
2018-09-14T08:46:53.617Z,1008.84
2018-09-14T08:47:53.659Z,1008.83
2018-09-14T08:48:53.593Z,1008.80
2018-09-14T08:49:53.587Z,1008.80
2018-09-14T08:50:53.573Z,1008.84
2018-09-14T08:51:53.564Z,1008.83
2018-09-14T08:52:53.553Z,1008.83
2018-09-14T08:53:53.671Z,1008.90
2018-09-14T08:54:53.529Z,1008.85
2018-09-14T08:55:53.517Z,1008.92
2018-09-14T08:56:53.507Z,1008.92
2018-09-14T08:57:53.513Z,1008.94
2018-09-14T08:58:53.487Z,1008.89
2018-09-14T08:59:53.491Z,1008.88
2018-09-14T09:00:53.591Z,1008.86
2018-09-14T09:01:53.467Z,1008.93
2018-09-14T09:02:53.453Z,1008.90
2018-09-14T09:03:53.526Z,1008.88
2018-09-14T09:04:53.435Z,1008.88
2018-09-14T09:05:53.407Z,1008.89
2018-09-14T09:06:53.397Z,1008.90
2018-09-14T09:07:53.387Z,1008.89
2018-09-14T09:08:53.389Z,1008.87
2018-09-14T09:09:53.362Z,1008.89
2018-09-14T09:10:53.374Z,1008.88
2018-09-14T09:11:53.343Z,1008.89
2018-09-14T09:12:53.335Z,1008.87
2018-09-14T09:13:53.318Z,1008.88
2018-09-14T09:14:53.308Z,1008.90
2018-09-14T09:15:53.300Z,1008.90
2018-09-14T09:16:53.302Z,1008.91
2018-09-14T09:17:53.420Z,1008.93
2018-09-14T09:18:53.265Z,1008.88
2018-09-14T09:19:53.286Z,1008.89
2018-09-14T09:20:53.258Z,1008.84
2018-09-14T09:21:53.249Z,1008.91
2018-09-14T09:22:53.223Z,1008.86
2018-09-14T09:23:53.211Z,1008.88
2018-09-14T09:24:53.202Z,1008.87
2018-09-14T09:25:53.203Z,1008.91
2018-09-14T09:26:53.201Z,1008.88
2018-09-14T09:27:53.167Z,1008.88
2018-09-14T09:28:53.160Z,1008.90
2018-09-14T09:29:53.146Z,1008.87
2018-09-14T09:30:53.154Z,1008.90
2018-09-14T09:31:53.143Z,1008.90
2018-09-14T09:32:53.117Z,1008.91
2018-09-14T09:33:53.104Z,1008.91
2018-09-14T09:34:53.096Z,1008.91
2018-09-14T09:35:53.082Z,1008.95
2018-09-14T09:36:53.093Z,1008.92
2018-09-14T09:37:53.065Z,1008.97
2018-09-14T09:38:53.050Z,1008.97
2018-09-14T09:39:53.042Z,1008.94
2018-09-14T09:40:53.032Z,1008.96
2018-09-14T09:41:53.019Z,1008.92
2018-09-14T09:42:53.075Z,1009.02
2018-09-14T09:43:53.055Z,1008.98
2018-09-14T09:44:52.989Z,1008.98
2018-09-14T09:45:52.980Z,1008.97
2018-09-14T09:46:52.965Z,1008.95
2018-09-14T09:47:52.975Z,1008.95
2018-09-14T09:48:52.964Z,1008.92
2018-09-14T09:49:52.933Z,1008.88
2018-09-14T09:50:53.064Z,1008.85
2018-09-14T09:51:52.908Z,1008.91
2018-09-14T09:52:52.900Z,1008.92
2018-09-14T09:53:52.888Z,1008.92
2018-09-14T09:54:52.893Z,1008.92
2018-09-14T09:55:52.864Z,1008.94
2018-09-14T09:56:52.854Z,1008.90
2018-09-14T09:57:52.844Z,1008.92
2018-09-14T09:58:52.833Z,1008.95
2018-09-14T09:59:52.835Z,1008.91
2018-09-14T10:00:52.824Z,1008.90
2018-09-14T10:01:52.801Z,1008.91
2018-09-14T10:02:52.787Z,1008.88
2018-09-14T10:03:52.787Z,1008.90
2018-09-14T10:04:52.783Z,1008.86
2018-09-14T10:05:52.754Z,1009.10
2018-09-14T10:06:52.743Z,1008.91
2018-09-14T10:07:52.742Z,1008.94
2018-09-14T10:08:52.724Z,1008.85
2018-09-14T10:09:52.727Z,1008.88
2018-09-14T10:10:52.703Z,1008.81
2018-09-14T10:11:52.694Z,1008.81
2018-09-14T10:12:52.679Z,1008.82
2018-09-14T10:13:52.668Z,1008.89
2018-09-14T10:14:52.688Z,1008.87
2018-09-14T10:15:52.647Z,1008.83
2018-09-14T10:16:52.638Z,1008.85
2018-09-14T10:17:52.627Z,1008.87
2018-09-14T10:18:52.632Z,1008.92
2018-09-14T10:19:52.602Z,1008.97
2018-09-14T10:20:52.670Z,1008.77
2018-09-14T10:21:52.668Z,1008.77
2018-09-14T10:22:52.572Z,1008.77
2018-09-14T10:23:52.562Z,1008.77
2018-09-14T10:24:52.556Z,1008.81
2018-09-14T10:25:52.539Z,1008.80
2018-09-14T10:26:52.560Z,1009.00
2018-09-14T10:27:52.520Z,1008.76
2018-09-14T10:28:52.538Z,1008.78
2018-09-14T10:29:52.499Z,1008.78
2018-09-14T10:30:52.500Z,1009.05
2018-09-14T10:31:52.489Z,1009.05
2018-09-14T10:32:52.476Z,1009.06
2018-09-14T10:33:52.489Z,1009.03
2018-09-14T10:34:52.473Z,1008.98
2018-09-14T10:35:52.434Z,1008.82
2018-09-14T10:36:52.453Z,1009.04
2018-09-14T10:37:52.424Z,1009.00
2018-09-14T10:38:52.398Z,1009.00
2018-09-14T10:39:52.387Z,1009.00
2018-09-14T10:40:52.427Z,1009.00
2018-09-14T10:41:52.367Z,1009.00
2018-09-14T10:42:52.431Z,1009.02
2018-09-14T10:43:52.346Z,1009.01
2018-09-14T10:44:52.333Z,1009.02
2018-09-14T10:45:52.342Z,1008.95
2018-09-14T10:46:52.313Z,1008.90
2018-09-14T10:47:52.318Z,1008.95
2018-09-14T10:48:52.342Z,1008.96
2018-09-14T10:49:52.330Z,1008.98
2018-09-14T10:50:52.290Z,1008.95
2018-09-14T10:51:52.265Z,1009.00
2018-09-14T10:52:52.251Z,1008.88
2018-09-14T10:53:52.257Z,1008.85
2018-09-14T10:54:52.272Z,1008.87
2018-09-14T10:55:52.221Z,1008.82
2018-09-14T10:56:52.211Z,1008.78
2018-09-14T10:57:52.200Z,1008.80
2018-09-14T10:58:52.190Z,1008.81
2018-09-14T10:59:52.191Z,1008.82
2018-09-14T11:00:52.203Z,1008.83
2018-09-14T11:01:52.157Z,1008.82
2018-09-14T11:02:52.147Z,1008.84
2018-09-14T11:03:52.135Z,1008.82
2018-09-14T11:04:52.137Z,1008.81
2018-09-14T11:05:52.116Z,1008.80
2018-09-14T11:06:52.131Z,1008.82
2018-09-14T11:07:52.092Z,1008.81
2018-09-14T11:08:52.097Z,1008.78
2018-09-14T11:09:52.120Z,1008.77
2018-09-14T11:10:52.063Z,1008.78
2018-09-14T11:11:52.065Z,1008.76
2018-09-14T11:12:52.092Z,1008.74
2018-09-14T11:13:52.028Z,1008.80
2018-09-14T11:14:52.034Z,1008.75
2018-09-14T11:15:52.062Z,1008.79
2018-09-14T11:16:52.001Z,1008.80
2018-09-14T11:17:51.989Z,1008.76
2018-09-14T11:18:51.986Z,1008.78
2018-09-14T11:19:51.967Z,1008.78
2018-09-14T11:20:51.957Z,1008.74
2018-09-14T11:21:51.960Z,1008.75
2018-09-14T11:22:51.939Z,1008.75
2018-09-14T11:23:51.926Z,1008.67
2018-09-14T11:24:52.060Z,1008.71
2018-09-14T11:25:51.917Z,1008.71
2018-09-14T11:26:51.894Z,1008.68
2018-09-14T11:27:51.909Z,1008.66
2018-09-14T11:28:51.873Z,1008.70
2018-09-14T11:29:51.866Z,1008.65
2018-09-14T11:30:51.867Z,1008.68
2018-09-14T11:31:51.844Z,1008.63
2018-09-14T11:32:51.832Z,1008.64
2018-09-14T11:33:51.818Z,1008.72
2018-09-14T11:34:51.810Z,1008.66
2018-09-14T11:35:51.820Z,1008.62
2018-09-14T11:36:51.806Z,1008.62
2018-09-14T11:37:51.877Z,1008.61
2018-09-14T11:38:51.772Z,1008.64
2018-09-14T11:39:51.759Z,1008.64
2018-09-14T11:40:51.747Z,1008.57
2018-09-14T11:41:51.740Z,1008.51
2018-09-14T11:42:51.742Z,1008.48
2018-09-14T11:43:51.731Z,1008.49
2018-09-14T11:44:51.705Z,1008.23
2018-09-14T11:45:51.755Z,1008.14
2018-09-14T11:46:51.687Z,1008.23
2018-09-14T11:47:51.688Z,1008.35
2018-09-14T11:48:51.667Z,1008.42
2018-09-14T11:49:51.656Z,1008.38
2018-09-14T11:50:51.642Z,1008.35
2018-09-14T11:51:51.636Z,1008.33
2018-09-14T11:52:51.637Z,1008.34
2018-09-14T11:53:51.611Z,1008.37
2018-09-14T11:54:51.600Z,1008.39
2018-09-14T11:55:51.590Z,1008.35
2018-09-14T11:56:51.579Z,1008.25
2018-09-14T11:57:51.586Z,1008.29
2018-09-14T11:58:51.568Z,1008.33
2018-09-14T11:59:51.577Z,1007.95
2018-09-14T12:00:51.538Z,1008.27
2018-09-14T12:01:51.527Z,1008.24
2018-09-14T12:02:51.530Z,1008.12
2018-09-14T12:03:51.528Z,1008.15
2018-09-14T12:04:51.496Z,1007.79
2018-09-14T12:05:51.488Z,1007.77